Bullhead City, AZ

9:10 AM MST on November 23, 2014 (GMT -0700)
Laughlin-Bullhead International | Change Station
CLOSE
Current Station
Airport
Location: Bullhead City,
Elevation: 696 ft
Nearby Weather Stations
Active Advisory: Lake Wind Advisory

Elev 696 ft 35.16 °N, 114.56 °W | Updated 15 minutes ago

Clear
Clear
63 °F
Feels Like 63 °F
N
22
Wind Variable Wind from North
Gusts 26 mph

Today
High -- | Low -- °F
--% Chance of Precip.
Yesterday
High -- | Low -- °F
Precip. -- in
7:20 AM 5:28 PM
New Moon, 2% visible
Pressure 30.19 in
Visibility 10.0 miles
Clouds Clear
Dew Point 25 °F
Humidity 24%
Rainfall 0.00 in
Snow Depth Not available.
UV 1 out of 12
Pollen 3.90 out of 12
Air Quality Not available.
Flu Activity Not available.
METAR KIFP 231555Z AUTO 35019G23KT 10SM CLR 17/M04 A3019 RMK AO2 PWINO

More Conditions Fewer Conditions

Pressure 30.19 in
Visibility 10.0 miles
Clouds Clear
Dew Point 25 °F
Humidity 24%
Rainfall 0.00 in
Snow Depth Not available.
UV 1 out of 12
Pollen 3.90 out of 12
Air Quality Not available.
Flu Activity Not available.
METAR KIFP 231555Z AUTO 35019G23KT 10SM CLR 17/M04 A3019 RMK AO2 PWINO

More Conditions Fewer Conditions

10-Day Weather Forecast

Almanac

Astronomy

Nov. 23, 2014 Rise Set
Actual Time
Civil Twilight
Nautical Twilight
Astronomical Twilight
Moon
Length of Visible Light
Length of Day
Tomorrow will be .
, % of the Moon is Illuminated

Today's Extremes

State Highs State Lows

Community

WunderPhotos

Upload Photos

1,773,089 photos uploaded!

WunderBlogs® & News

Nearby

Air Quality

  Air Quality AQ Index Pollutant
Not available.

Snow Depth

Station Depth Elevation

Earthquake Activity

City Distance Mag. Time & Date
Minimum magnitude displayed is 2.5.

Coastal Water Temperatures

Place Temperature

Nearby Weather Stations